Time;durP1;ratioP1;P1;durP2;ratioP2;P2;SDS_P1;SDS_P2;PMS_P1;PMS_P2;Temp;Humidity;BMP_temperature;BMP_pressure;BME280_temperature;BME280_humidity;BME280_pressure;Samples;Min_cycle;Max_cycle;Signal;HPM_P1;HPM_P2
2022/05/24 00:00:18;;;;;;;5.33;2.15;;;;;;;11.31;60.55;98673.24;1713770;83;21036;-80
2022/05/24 00:02:46;;;;;;;6.10;2.92;;;;;;;11.29;61.02;98663.34;1711636;83;21068;-79
2022/05/24 00:05:15;;;;;;;7.78;2.67;;;;;;;11.30;61.39;98675.00;1713992;83;21024;-79
2022/05/24 00:07:42;;;;;;;5.62;2.20;;;;;;;11.28;60.29;98672.91;1713304;84;21028;-82
2022/05/24 00:10:14;;;;;;;6.12;2.67;;;;;;;11.20;60.24;98670.15;1707297;83;21488;-80
2022/05/24 00:12:41;;;;;;;6.75;2.55;;;;;;;11.09;60.17;98664.87;1708021;84;21086;-79
2022/05/24 00:15:30;;;;;;;4.60;2.60;;;;;;;11.04;61.87;98664.20;1698018;84;21494;-80
2022/05/24 00:18:08;;;;;;;7.95;2.83;;;;;;;10.97;60.05;98669.19;1701634;84;21104;-80
2022/05/24 00:20:48;;;;;;;6.70;2.30;;;;;;;10.86;61.17;98668.26;1699813;84;21039;-80
2022/05/24 00:23:16;;;;;;;8.98;2.40;;;;;;;10.81;61.46;98664.11;1711675;84;21000;-79
2022/05/24 00:25:49;;;;;;;8.35;2.70;;;;;;;10.75;61.07;98665.15;1701610;84;21003;-79
2022/05/24 00:28:16;;;;;;;6.45;2.65;;;;;;;10.68;62.06;98654.54;1711235;84;20992;-79
2022/05/24 00:30:46;;;;;;;4.83;2.30;;;;;;;10.65;62.98;98661.16;1710264;83;21068;-79
2022/05/24 00:33:14;;;;;;;9.78;2.60;;;;;;;10.62;61.34;98658.18;1713376;84;21016;-80
2022/05/24 00:35:42;;;;;;;9.38;2.37;;;;;;;10.60;62.23;98663.03;1714053;83;21012;-80
2022/05/24 00:38:12;;;;;;;6.08;2.65;;;;;;;10.58;62.70;98665.67;1704079;83;21055;-80
2022/05/24 00:41:11;;;;;;;5.20;2.17;;;;;;;10.58;62.62;98665.67;1709996;84;21000;-80
2022/05/24 00:44:01;;;;;;;4.90;2.72;;;;;;;10.56;62.23;98663.58;1712226;84;21004;-80
2022/05/24 00:46:51;;;;;;;6.22;2.45;;;;;;;10.50;65.01;98659.45;1707532;82;21087;-81
2022/05/24 00:49:35;;;;;;;4.22;2.15;;;;;;;10.45;62.90;98655.30;1665205;86;21069;-79
2022/05/24 00:52:15;;;;;;;5.25;2.30;;;;;;;10.40;62.44;98654.12;1659233;86;21020;-79
2022/05/24 00:54:44;;;;;;;4.85;2.30;;;;;;;10.39;62.20;98655.03;1700491;83;20996;-80
2022/05/24 00:57:37;;;;;;;4.33;2.10;;;;;;;10.34;64.35;98651.29;1728121;83;21027;-80
2022/05/24 01:00:15;;;;;;;5.78;2.37;;;;;;;10.32;62.79;98650.91;1728063;83;21002;-81
2022/05/24 01:02:43;;;;;;;5.20;1.98;;;;;;;10.28;62.85;98640.19;1724163;83;21051;-79
2022/05/24 01:05:18;;;;;;;6.67;2.67;;;;;;;10.28;64.74;98634.98;1727341;83;21028;-79
2022/05/24 01:07:46;;;;;;;3.70;1.90;;;;;;;10.27;63.50;98635.45;1721214;83;21027;-79
2022/05/24 01:10:24;;;;;;;7.22;2.20;;;;;;;10.29;63.62;98631.50;1727566;83;21059;-79
2022/05/24 01:13:06;;;;;;;4.20;2.10;;;;;;;10.33;63.73;98639.18;1723943;83;21019;-80
2022/05/24 01:15:34;;;;;;;6.70;2.27;;;;;;;10.39;63.71;98645.94;1727590;83;21000;-80
2022/05/24 01:18:02;;;;;;;5.08;2.17;;;;;;;10.42;64.03;98648.42;1725015;83;21088;-79
2022/05/24 01:20:28;;;;;;;6.97;2.40;;;;;;;10.43;64.56;98636.30;1727514;83;21480;-78
2022/05/24 01:23:21;;;;;;;5.00;2.10;;;;;;;10.43;64.04;98635.84;1721694;83;21056;-80
2022/05/24 01:26:18;;;;;;;4.35;2.05;;;;;;;10.44;64.49;98636.69;1723228;83;21015;-79
2022/05/24 01:28:57;;;;;;;5.75;2.42;;;;;;;10.39;64.40;98632.95;1702743;83;20973;-80
2022/05/24 01:36:09;;;;;;;3.83;2.02;;;;;;;10.35;64.07;98638.68;1732164;83;21037;-80
2022/05/24 01:36:41;;;;;;;8.88;2.52;;;;;;;10.33;64.54;98640.94;1702827;83;21023;-82
2022/05/24 01:39:11;;;;;;;6.40;2.25;;;;;;;10.33;63.54;98639.64;1719263;83;21031;-79
2022/05/24 01:41:42;;;;;;;7.12;2.70;;;;;;;10.31;64.77;98636.23;1725098;83;21032;-79
2022/05/24 01:44:12;;;;;;;5.78;2.50;;;;;;;10.29;64.25;98641.44;1713578;83;20993;-79
2022/05/24 01:46:44;;;;;;;9.85;2.92;;;;;;;10.25;65.30;98639.84;1726863;83;21067;-79
2022/05/24 01:49:25;;;;;;;8.95;2.47;;;;;;;10.24;64.89;98642.02;1708707;83;21060;-80
2022/05/24 01:51:57;;;;;;;5.25;2.83;;;;;;;10.21;64.42;98640.84;1714055;84;21023;-79
2022/05/24 01:54:24;;;;;;;6.83;2.80;;;;;;;10.17;65.54;98626.23;1714156;84;21035;-80
2022/05/24 01:57:02;;;;;;;7.17;3.22;;;;;;;10.13;66.30;98631.97;1714289;83;21053;-80
2022/05/24 01:59:32;;;;;;;7.72;3.27;;;;;;;10.11;65.65;98635.06;1703764;83;21455;-79
2022/05/24 02:02:00;;;;;;;5.45;3.02;;;;;;;10.07;65.79;98637.81;1710234;84;20964;-80
2022/05/24 02:04:31;;;;;;;9.68;3.50;;;;;;;10.06;66.28;98634.34;1709926;83;21504;-80
2022/05/24 02:07:05;;;;;;;5.87;3.20;;;;;;;10.03;65.33;98633.16;1708662;84;21008;-80
2022/05/24 02:09:34;;;;;;;6.62;2.60;;;;;;;10.00;67.88;98639.73;1709048;84;21075;-80
2022/05/24 02:12:06;;;;;;;8.70;2.98;;;;;;;9.96;63.83;98633.77;1710214;84;21008;-81
2022/05/24 02:14:38;;;;;;;7.05;2.50;;;;;;;9.92;64.35;98630.02;1709876;84;21560;-80
2022/05/24 02:17:12;;;;;;;4.17;2.22;;;;;;;9.89;64.83;98629.67;1702917;83;20971;-80
2022/05/24 02:19:44;;;;;;;4.47;2.35;;;;;;;9.88;64.33;98632.31;1709395;84;21080;-78
2022/05/24 02:22:21;;;;;;;6.08;2.87;;;;;;;9.86;65.46;98624.55;1697521;84;21051;-80
2022/05/24 02:25:02;;;;;;;9.43;3.27;;;;;;;9.84;64.25;98632.00;1711868;84;21495;-80
2022/05/24 02:27:30;;;;;;;8.95;3.33;;;;;;;9.82;65.69;98632.48;1714230;84;21005;-80
2022/05/24 02:29:58;;;;;;;11.18;3.62;;;;;;;9.79;65.76;98637.76;1712563;84;21008;-80
2022/05/24 02:32:24;;;;;;;8.08;3.22;;;;;;;9.77;66.27;98641.72;1706708;84;20980;-79
2022/05/24 02:34:51;;;;;;;6.90;3.33;;;;;;;9.75;64.43;98637.86;1711871;84;21076;-80
2022/05/24 02:37:19;;;;;;;6.10;3.20;;;;;;;9.75;65.98;98633.12;1708475;83;21042;-79
2022/05/24 02:42:31;;;;;;;5.55;2.83;;;;;;;9.76;65.31;98618.78;1704317;84;20987;-80
2022/05/24 02:44:58;;;;;;;4.70;2.42;;;;;;;9.76;64.61;98623.97;1710337;84;21040;-79
2022/05/24 02:47:26;;;;;;;5.22;2.75;;;;;;;9.76;65.15;98612.29;1706613;82;21027;-80
2022/05/24 02:49:53;;;;;;;6.08;2.35;;;;;;;9.79;64.88;98609.20;1726295;83;21003;-78
2022/05/24 02:52:19;;;;;;;7.17;2.47;;;;;;;9.83;65.53;98623.79;1722770;83;21024;-78
2022/05/24 02:54:46;;;;;;;5.47;2.42;;;;;;;9.85;65.67;98612.95;1726257;83;20988;-81
2022/05/24 02:57:13;;;;;;;3.33;2.30;;;;;;;9.88;65.56;98601.15;1722368;83;21011;-80
2022/05/24 02:59:40;;;;;;;4.25;2.35;;;;;;;9.93;65.35;98607.91;1726388;83;21031;-82
2022/05/24 03:02:07;;;;;;;7.70;2.90;;;;;;;9.91;65.69;98606.27;1724387;83;21560;-82
2022/05/24 03:04:34;;;;;;;5.62;2.75;;;;;;;9.92;66.71;98600.16;1727232;83;21016;-79
2022/05/24 03:09:46;;;;;;;7.50;2.85;;;;;;;9.91;66.90;98590.23;1722485;83;20948;-80
2022/05/24 03:14:58;;;;;;;7.03;2.85;;;;;;;10.05;65.62;98617.08;1727182;83;21047;-80
2022/05/24 03:17:25;;;;;;;3.72;2.50;;;;;;;10.09;65.08;98613.95;1725774;83;20988;-80
2022/05/24 03:19:52;;;;;;;5.97;2.37;;;;;;;10.07;65.42;98618.34;1727189;83;20980;-79
2022/05/24 03:22:19;;;;;;;4.72;2.70;;;;;;;10.04;65.43;98620.55;1725772;83;21000;-79
2022/05/24 03:24:46;;;;;;;9.68;2.77;;;;;;;10.05;65.89;98623.57;1720930;83;20980;-79
2022/05/24 03:27:13;;;;;;;6.20;2.80;;;;;;;10.08;65.47;98620.02;1726966;82;21022;-81
2022/05/24 03:29:43;;;;;;;6.55;2.65;;;;;;;10.06;66.57;98620.52;1722231;83;21523;-80
2022/05/24 03:32:12;;;;;;;12.60;3.25;;;;;;;10.05;65.35;98615.78;1727217;82;21001;-79
2022/05/24 03:34:40;;;;;;;5.90;2.42;;;;;;;10.02;65.67;98613.26;1719935;83;21321;-81
2022/05/24 03:37:08;;;;;;;6.33;2.90;;;;;;;9.99;65.17;98615.97;1727275;83;20987;-79
2022/05/24 03:39:36;;;;;;;4.97;2.85;;;;;;;9.95;66.63;98619.10;1723364;83;21046;-80
2022/05/24 03:42:05;;;;;;;5.50;2.90;;;;;;;9.93;65.80;98618.30;1719984;83;21059;-80
2022/05/24 03:44:32;;;;;;;7.08;2.47;;;;;;;9.93;65.66;98618.75;1724366;83;21024;-79
2022/05/24 03:46:59;;;;;;;5.90;2.62;;;;;;;9.91;65.15;98614.89;1719755;82;21086;-80
2022/05/24 03:49:25;;;;;;;6.40;2.55;;;;;;;9.91;65.42;98615.35;1717879;83;21022;-79
2022/05/24 03:51:52;;;;;;;4.72;2.80;;;;;;;9.90;65.64;98619.67;1705001;83;21492;-80
2022/05/24 03:54:18;;;;;;;6.83;2.80;;;;;;;9.91;64.74;98611.45;1715793;83;20955;-79
2022/05/24 03:59:32;;;;;;;6.62;3.75;;;;;;;9.85;66.20;98617.68;1723652;83;21039;-80
2022/05/24 04:01:59;;;;;;;8.80;5.22;;;;;;;9.85;67.21;98619.44;1731745;83;21004;-80
2022/05/24 04:04:25;;;;;;;11.12;6.85;;;;;;;9.85;66.41;98625.92;1718111;82;20977;-80
2022/05/24 04:06:52;;;;;;;11.38;6.42;;;;;;;9.86;65.65;98627.61;1711435;83;21438;-81
2022/05/24 04:09:18;;;;;;;10.23;4.60;;;;;;;9.91;66.08;98633.08;1727178;83;21019;-79
2022/05/24 04:11:45;;;;;;;11.90;3.90;;;;;;;10.01;65.06;98635.38;1712719;84;20986;-80
2022/05/24 04:14:12;;;;;;;7.53;2.60;;;;;;;10.07;65.22;98641.25;1715992;83;20986;-82
2022/05/24 04:16:39;;;;;;;8.00;3.10;;;;;;;10.14;65.96;98632.36;1716556;83;20976;-80
2022/05/24 04:19:05;;;;;;;10.85;3.52;;;;;;;10.22;65.90;98636.02;1710579;84;20967;-80
2022/05/24 04:21:32;;;;;;;6.60;2.95;;;;;;;10.33;66.86;98640.94;1712436;83;20986;-79
2022/05/24 04:23:59;;;;;;;6.28;2.70;;;;;;;10.45;66.59;98645.74;1724617;82;21015;-80
2022/05/24 04:26:26;;;;;;;7.08;2.80;;;;;;;10.53;66.14;98646.80;1719231;83;21078;-80
2022/05/24 04:28:53;;;;;;;6.97;2.70;;;;;;;10.62;66.37;98650.38;1715816;83;20966;-80
2022/05/24 04:31:21;;;;;;;5.67;2.83;;;;;;;10.73;66.23;98656.55;1717638;83;21091;-80
2022/05/24 04:33:47;;;;;;;10.40;2.92;;;;;;;10.76;65.76;98666.84;1718781;83;20986;-79
2022/05/24 04:36:14;;;;;;;9.00;2.92;;;;;;;10.83;65.24;98675.30;1713595;83;20970;-79
2022/05/24 04:38:41;;;;;;;5.33;2.67;;;;;;;10.88;65.07;98678.16;1713824;83;21051;-80
2022/05/24 04:43:54;;;;;;;6.80;3.62;;;;;;;10.93;64.44;98672.80;1708242;84;20997;-80
2022/05/24 04:46:21;;;;;;;7.60;3.33;;;;;;;10.94;64.68;98658.87;1723510;82;21051;-80
2022/05/24 04:48:47;;;;;;;20.25;8.60;;;;;;;10.96;64.50;98662.27;1714857;83;21066;-81
2022/05/24 04:51:14;;;;;;;9.95;3.72;;;;;;;10.98;64.47;98659.17;1727300;83;21531;-81
2022/05/24 04:53:40;;;;;;;8.13;3.30;;;;;;;11.01;64.25;98651.73;1723250;83;20956;-80
2022/05/24 04:56:07;;;;;;;6.28;2.92;;;;;;;11.09;64.14;98658.83;1727007;83;21019;-79
2022/05/24 04:58:34;;;;;;;8.23;3.90;;;;;;;11.17;63.87;98654.20;1723990;83;21015;-81
2022/05/24 05:01:00;;;;;;;10.00;3.22;;;;;;;11.24;65.01;98657.43;1727310;83;20987;-80
2022/05/24 05:03:27;;;;;;;14.25;3.85;;;;;;;11.34;63.34;98664.88;1725574;83;20951;-80
2022/05/24 05:05:54;;;;;;;7.47;3.10;;;;;;;11.42;64.04;98664.62;1719948;83;21020;-80
2022/05/24 05:08:20;;;;;;;6.58;3.02;;;;;;;11.53;63.36;98654.65;1724568;83;21035;-80
2022/05/24 05:10:48;;;;;;;8.18;2.40;;;;;;;11.65;63.64;98653.36;1724167;83;20999;-80
2022/05/24 05:13:15;;;;;;;6.25;2.90;;;;;;;11.75;62.86;98659.92;1725297;83;21012;-80
2022/05/24 05:15:42;;;;;;;6.15;2.50;;;;;;;11.85;62.81;98660.44;1718569;83;21023;-84
2022/05/24 05:18:13;;;;;;;5.80;2.52;;;;;;;11.94;62.89;98654.08;1724458;83;21472;-81
2022/05/24 05:20:41;;;;;;;10.43;2.80;;;;;;;12.04;62.51;98654.59;1722618;83;21023;-79
2022/05/24 05:23:13;;;;;;;10.20;2.52;;;;;;;12.13;61.98;98656.36;1727136;83;21459;-79
2022/05/24 05:25:42;;;;;;;5.55;2.25;;;;;;;12.18;61.72;98650.16;1715979;83;21007;-80
2022/05/24 05:28:09;;;;;;;5.67;2.10;;;;;;;12.21;61.42;98655.23;1726938;83;21030;-80
2022/05/24 05:33:20;;;;;;;7.17;2.00;;;;;;;12.26;60.97;98654.14;1727443;83;21059;-79
2022/05/24 05:35:47;;;;;;;8.85;2.33;;;;;;;12.24;61.07;98662.48;1724825;83;20992;-80
2022/05/24 05:38:14;;;;;;;4.50;2.50;;;;;;;12.31;61.17;98660.47;1724719;83;20995;-78
2022/05/24 05:40:42;;;;;;;6.87;2.42;;;;;;;12.38;61.00;98661.10;1722080;83;20992;-80
2022/05/24 05:43:09;;;;;;;4.50;2.37;;;;;;;12.50;61.10;98661.45;1718677;83;21577;-80
2022/05/24 05:45:37;;;;;;;6.65;2.60;;;;;;;12.65;60.63;98665.22;1721147;82;21075;-79
2022/05/24 05:48:05;;;;;;;5.10;2.00;;;;;;;12.73;60.30;98661.84;1715570;83;21120;-79
2022/05/24 05:50:32;;;;;;;9.23;4.03;;;;;;;12.89;59.88;98671.19;1754890;80;21051;-80
2022/05/24 05:53:01;;;;;;;13.45;6.85;;;;;;;13.04;59.97;98658.41;1757165;81;21056;-80
2022/05/24 05:55:27;;;;;;;7.58;2.40;;;;;;;13.26;59.68;98660.48;1747997;81;21042;-80
2022/05/24 05:57:53;;;;;;;8.83;2.12;;;;;;;13.44;59.36;98655.42;1751106;81;21008;-79
2022/05/24 06:00:20;;;;;;;4.55;2.12;;;;;;;13.56;58.90;98658.80;1750470;81;21035;-78
2022/05/24 06:02:47;;;;;;;3.50;2.02;;;;;;;13.72;58.37;98661.11;1748717;81;21027;-79
2022/05/24 06:05:13;;;;;;;9.58;2.22;;;;;;;13.85;57.91;98661.42;1754002;81;20992;-79
2022/05/24 06:07:40;;;;;;;3.83;2.10;;;;;;;14.03;57.70;98662.81;1753148;81;21327;-79
2022/05/24 06:10:10;;;;;;;4.40;2.00;;;;;;;14.15;57.48;98660.09;1753582;81;21051;-79
2022/05/24 06:12:36;;;;;;;4.12;1.90;;;;;;;14.29;57.51;98655.89;1753127;81;20967;-80
2022/05/24 06:15:04;;;;;;;5.37;1.90;;;;;;;14.40;55.85;98655.84;1751782;81;21054;-80
2022/05/24 06:17:30;;;;;;;4.08;1.80;;;;;;;14.44;56.22;98667.41;1756301;81;20987;-81
2022/05/24 06:20:01;;;;;;;8.95;2.05;;;;;;;14.48;55.57;98669.39;1754853;81;21934;-81
2022/05/24 06:22:28;;;;;;;5.22;2.00;;;;;;;14.56;56.14;98676.88;1752494;81;20986;-79
2022/05/24 06:24:55;;;;;;;5.00;2.10;;;;;;;14.53;55.40;98669.56;1753106;81;21015;-79
2022/05/24 06:27:22;;;;;;;5.10;2.42;;;;;;;14.58;55.25;98670.67;1737022;82;21529;-81
2022/05/24 06:29:49;;;;;;;7.35;2.20;;;;;;;14.53;55.19;98669.56;1747507;81;21080;-82
2022/05/24 06:32:16;;;;;;;7.60;2.65;;;;;;;14.48;55.41;98670.70;1753254;81;21051;-82
2022/05/24 06:34:43;;;;;;;7.72;2.20;;;;;;;14.48;55.53;98666.78;1745319;80;20999;-83
2022/05/24 06:37:11;;;;;;;6.65;2.30;;;;;;;14.53;55.73;98674.80;1749718;81;21017;-80
2022/05/24 06:39:37;;;;;;;6.83;2.55;;;;;;;14.64;55.51;98681.31;1751535;81;21012;-82
2022/05/24 06:42:06;;;;;;;6.33;2.42;;;;;;;14.75;54.49;98671.18;1733472;81;21856;-80
2022/05/24 06:44:34;;;;;;;7.10;2.40;;;;;;;14.89;55.19;98672.66;1755413;80;21106;-80
2022/05/24 06:47:01;;;;;;;7.05;2.25;;;;;;;15.05;54.98;98670.59;1745698;80;21012;-80
2022/05/24 06:49:28;;;;;;;7.55;2.12;;;;;;;15.23;53.96;98675.36;1729800;81;21071;-80
2022/05/24 06:51:54;;;;;;;6.70;2.70;;;;;;;15.39;54.19;98667.09;1706247;83;21011;-80
2022/05/24 06:54:21;;;;;;;5.45;2.20;;;;;;;15.57;53.97;98673.63;1718185;82;21067;-79
2022/05/24 06:56:48;;;;;;;8.53;2.30;;;;;;;15.74;53.12;98667.06;1715324;83;20994;-79
2022/05/24 07:04:46;;;;;;;8.30;2.70;;;;;;;16.25;52.94;98681.36;1716147;82;21472;-80
2022/05/24 07:07:13;;;;;;;8.55;3.22;;;;;;;16.38;52.09;98682.86;1718797;83;21126;-80
2022/05/24 07:09:40;;;;;;;6.35;3.10;;;;;;;16.50;51.80;98683.02;1713936;83;21004;-80
2022/05/24 07:12:09;;;;;;;7.62;2.87;;;;;;;16.62;51.98;98674.08;1716182;83;21099;-82
2022/05/24 07:14:36;;;;;;;5.95;2.37;;;;;;;16.69;51.88;98679.34;1710732;82;21969;-82
2022/05/24 07:17:03;;;;;;;8.20;3.20;;;;;;;16.82;52.02;98695.30;1715997;83;21067;-81
2022/05/24 07:19:32;;;;;;;4.97;2.92;;;;;;;16.94;51.97;98691.13;1717600;83;21173;-80
2022/05/24 07:21:58;;;;;;;10.65;2.92;;;;;;;17.08;52.04;98695.94;1719431;83;20997;-80
2022/05/24 07:24:25;;;;;;;5.65;3.35;;;;;;;17.18;51.12;98685.74;1715550;83;21042;-78
2022/05/24 07:26:52;;;;;;;6.55;3.10;;;;;;;17.13;50.11;98697.00;1715165;82;20966;-79
2022/05/24 07:29:18;;;;;;;5.72;2.65;;;;;;;17.20;51.08;98686.97;1715364;82;21071;-79
2022/05/24 07:31:45;;;;;;;6.42;3.25;;;;;;;17.24;50.58;98686.70;1715304;82;21037;-80
2022/05/24 07:34:12;;;;;;;6.65;2.95;;;;;;;17.27;50.70;98685.22;1711002;82;21011;-79
2022/05/24 07:36:38;;;;;;;9.75;2.80;;;;;;;17.38;50.03;98684.56;1716829;83;21019;-80
2022/05/24 07:39:05;;;;;;;8.65;2.70;;;;;;;17.39;49.30;98686.72;1714306;82;21071;-79
2022/05/24 07:47:02;;;;;;;5.90;2.90;;;;;;;17.69;49.13;98685.36;1718949;82;21530;-81
2022/05/24 07:49:28;;;;;;;10.20;2.90;;;;;;;17.76;49.66;98672.20;1714348;82;21055;-81
2022/05/24 07:51:55;;;;;;;5.40;2.72;;;;;;;17.87;49.32;98674.22;1718340;83;21042;-80
2022/05/24 07:54:24;;;;;;;7.45;3.00;;;;;;;17.92;49.55;98673.45;1721933;82;21523;-80
2022/05/24 07:56:51;;;;;;;5.28;2.70;;;;;;;18.12;49.45;98666.94;1718442;82;21047;-78
2022/05/24 07:59:18;;;;;;;7.47;2.70;;;;;;;18.40;48.76;98659.93;1717974;83;21111;-79
2022/05/24 08:01:45;;;;;;;7.25;3.20;;;;;;;18.68;49.35;98665.12;1687464;83;21031;-79
2022/05/24 08:04:11;;;;;;;5.67;2.75;;;;;;;18.93;48.59;98664.00;1723234;82;21051;-79
2022/05/24 08:06:38;;;;;;;8.35;3.55;;;;;;;19.04;48.00;98650.97;1724092;83;21064;-80
2022/05/24 08:09:05;;;;;;;6.62;2.70;;;;;;;19.15;48.00;98657.66;1724412;82;21274;-84
2022/05/24 08:11:32;;;;;;;9.35;3.00;;;;;;;19.42;48.17;98652.80;1718325;82;21090;-79
2022/05/24 08:14:02;;;;;;;7.22;2.65;;;;;;;19.75;47.62;98644.84;1721197;83;21001;-80
2022/05/24 08:16:32;;;;;;;9.25;4.20;;;;;;;19.99;46.41;98651.50;1712949;83;21355;-82
2022/05/24 08:19:01;;;;;;;6.35;2.80;;;;;;;20.12;46.56;98650.17;1714974;83;21022;-82
2022/05/24 08:21:29;;;;;;;10.38;4.12;;;;;;;20.38;46.69;98643.01;1721963;83;20991;-82
2022/05/24 08:23:56;;;;;;;6.70;3.00;;;;;;;20.64;44.33;98639.80;1719695;82;21047;-82
2022/05/24 08:26:23;;;;;;;5.37;2.60;;;;;;;20.86;41.88;98640.38;1714758;82;21089;-81
2022/05/24 08:28:51;;;;;;;7.22;2.60;;;;;;;21.00;44.55;98628.77;1707274;83;21074;-83
2022/05/24 08:31:19;;;;;;;6.80;2.55;;;;;;;21.25;44.25;98616.69;1717311;83;21024;-78
2022/05/24 08:33:47;;;;;;;9.00;3.27;;;;;;;21.49;42.84;98616.25;1721178;83;21480;-86
2022/05/24 08:36:14;;;;;;;7.25;2.20;;;;;;;21.64;41.69;98618.55;1719154;83;21041;-84
2022/05/24 08:38:42;;;;;;;4.12;2.05;;;;;;;21.65;43.22;98608.34;1716891;83;21048;-87
2022/05/24 08:41:36;;;;;;;5.87;2.40;;;;;;;21.85;43.28;98601.96;1726179;83;21042;-86
2022/05/24 08:50:05;;;;;;;2.92;1.65;;;;;;;22.24;40.39;98579.42;1715705;83;20992;-85
2022/05/24 08:52:42;;;;;;;3.98;1.77;;;;;;;22.42;40.33;98565.61;1702094;84;21031;-86
2022/05/24 08:55:11;;;;;;;6.00;2.02;;;;;;;22.55;38.32;98559.67;1704618;84;20981;-86
2022/05/24 08:57:57;;;;;;;7.97;2.20;;;;;;;22.62;40.18;98547.61;1690772;84;21034;-85
2022/05/24 09:00:38;;;;;;;3.62;2.20;;;;;;;22.70;38.76;98545.64;1702853;84;21000;-86
2022/05/24 09:03:07;;;;;;;5.67;3.10;;;;;;;22.94;39.27;98554.66;1716033;82;21000;-86
2022/05/24 09:05:38;;;;;;;7.85;2.50;;;;;;;23.03;38.86;98570.28;1709487;82;21055;-85
2022/05/24 09:08:10;;;;;;;7.40;2.27;;;;;;;23.11;38.82;98579.75;1688901;84;20966;-85
2022/05/24 09:10:54;;;;;;;8.40;2.50;;;;;;;23.10;38.46;98589.15;1706991;84;20996;-85
2022/05/24 09:14:11;;;;;;;4.53;2.08;;;;;;;22.81;37.12;98595.08;1708290;84;21695;-86
2022/05/24 09:17:09;;;;;;;4.37;1.70;;;;;;;22.67;37.60;98604.17;1703267;83;21071;-85
2022/05/24 09:19:39;;;;;;;7.50;2.30;;;;;;;22.35;37.19;98608.98;1705932;82;21156;-86
2022/05/24 09:22:11;;;;;;;3.50;1.95;;;;;;;22.11;36.95;98611.78;1709408;83;21015;-86
2022/05/24 09:24:49;;;;;;;6.85;2.02;;;;;;;21.93;37.10;98615.91;1707762;82;21052;-85
2022/05/24 09:27:26;;;;;;;4.12;1.70;;;;;;;21.77;37.34;98608.34;1707548;84;21033;-84
2022/05/24 09:30:08;;;;;;;3.37;1.92;;;;;;;21.71;37.14;98598.25;1702317;82;21060;-82
2022/05/24 09:32:41;;;;;;;5.85;1.82;;;;;;;21.58;37.50;98599.19;1703947;84;21031;-84
2022/05/24 09:35:25;;;;;;;5.67;1.85;;;;;;;21.45;36.88;98599.81;1699611;84;21480;-85
2022/05/24 09:38:08;;;;;;;5.87;1.90;;;;;;;21.36;37.49;98596.52;1703192;84;21013;-85
2022/05/24 09:40:54;;;;;;;5.45;2.17;;;;;;;21.31;37.90;98603.95;1698285;84;21059;-85
2022/05/24 09:43:29;;;;;;;9.25;2.30;;;;;;;21.21;38.31;98600.70;1705665;84;20992;-84
2022/05/24 09:46:18;;;;;;;6.65;2.08;;;;;;;21.26;39.10;98603.82;1708244;82;21721;-85
2022/05/24 09:49:06;;;;;;;6.37;2.50;;;;;;;21.09;39.68;98602.11;1702876;82;21022;-84
2022/05/24 09:51:41;;;;;;;8.28;2.52;;;;;;;20.93;40.15;98605.08;1709950;83;21016;-84
2022/05/24 09:54:20;;;;;;;4.60;2.10;;;;;;;20.90;40.88;98602.68;1716288;83;20976;-84
2022/05/24 09:57:04;;;;;;;4.22;1.92;;;;;;;20.96;41.41;98605.69;1716948;83;20983;-85
2022/05/24 09:59:33;;;;;;;4.10;2.33;;;;;;;20.78;41.57;98603.12;1705320;83;21325;-86
2022/05/24 10:02:02;;;;;;;6.35;2.15;;;;;;;20.64;42.00;98606.30;1716764;83;20976;-85
2022/05/24 10:04:36;;;;;;;4.45;2.05;;;;;;;20.66;41.67;98599.11;1723919;83;21031;-85
2022/05/24 10:07:11;;;;;;;3.58;1.90;;;;;;;20.69;41.77;98588.81;1723199;83;20982;-86
2022/05/24 10:10:01;;;;;;;5.92;2.50;;;;;;;20.68;41.06;98592.89;1710053;83;21047;-86
2022/05/24 10:12:51;;;;;;;4.53;2.02;;;;;;;20.76;40.73;98597.11;1717843;83;21023;-86
2022/05/24 10:15:49;;;;;;;4.15;1.87;;;;;;;20.68;40.45;98601.64;1713560;83;21049;-85
2022/05/24 10:18:52;;;;;;;2.90;1.80;;;;;;;20.53;40.26;98603.61;1723448;83;20996;-86
2022/05/24 10:21:41;;;;;;;4.42;2.15;;;;;;;20.33;38.85;98598.44;1720886;82;21036;-84
2022/05/24 10:24:25;;;;;;;4.80;1.95;;;;;;;20.43;40.08;98594.20;1725998;82;20999;-84
2022/05/24 10:27:08;;;;;;;4.55;2.00;;;;;;;20.48;39.93;98602.26;1721154;83;21535;-85
2022/05/24 10:29:49;;;;;;;3.37;1.85;;;;;;;20.42;40.72;98603.55;1716611;83;21027;-83
2022/05/24 10:38:57;;;;;;;6.33;2.55;;;;;;;20.31;40.78;98610.91;1744493;82;21046;-86
2022/05/24 10:41:28;;;;;;;5.17;2.00;;;;;;;20.11;41.97;98612.84;1736434;82;21055;-86
2022/05/24 10:44:13;;;;;;;5.95;2.00;;;;;;;20.08;42.28;98613.08;1704499;83;21090;-85
2022/05/24 10:47:00;;;;;;;3.92;1.90;;;;;;;20.06;41.62;98615.34;1720680;83;20973;-85
2022/05/24 10:49:36;;;;;;;6.80;2.50;;;;;;;20.03;41.58;98611.62;1722449;82;21032;-86
2022/05/24 10:52:11;;;;;;;4.72;1.98;;;;;;;20.11;41.42;98604.44;1707665;83;21012;-86
2022/05/24 10:55:17;;;;;;;5.30;2.20;;;;;;;20.10;41.50;98609.37;1657791;84;21100;-85
2022/05/24 10:58:00;;;;;;;9.85;2.83;;;;;;;20.23;41.51;98618.55;1705708;84;21005;-85
2022/05/24 11:00:34;;;;;;;6.95;2.22;;;;;;;20.27;42.06;98617.38;1706868;84;21180;-87
2022/05/24 11:03:18;;;;;;;13.22;3.45;;;;;;;20.38;42.20;98621.41;1676319;84;21016;-86
2022/05/24 11:06:01;;;;;;;5.28;2.85;;;;;;;20.45;42.87;98627.06;1697662;84;21032;-85
2022/05/24 11:08:43;;;;;;;;;;;;;;;20.51;42.52;98633.21;1701693;84;21032;-85
2022/05/24 11:11:45;;;;;;;11.55;2.92;;;;;;;20.47;43.00;98631.75;1689791;84;20105;-85
2022/05/24 11:14:50;;;;;;;6.58;2.75;;;;;;;20.48;42.76;98640.54;1708738;84;21052;-85
2022/05/24 11:17:20;;;;;;;6.25;3.00;;;;;;;20.46;44.58;98648.56;1702800;84;21037;-85
2022/05/24 11:19:54;;;;;;;4.87;2.58;;;;;;;20.53;45.87;98646.31;1699440;83;21007;-85
2022/05/24 11:22:48;;;;;;;7.20;2.70;;;;;;;20.51;45.16;98647.73;1704853;84;21033;-84
2022/05/24 11:25:28;;;;;;;7.37;3.27;;;;;;;20.44;46.22;98650.48;1699936;84;20957;-85
2022/05/24 11:28:11;;;;;;;9.68;2.58;;;;;;;20.44;46.04;98635.95;1695198;84;21038;-85
2022/05/24 11:30:40;;;;;;;10.80;2.90;;;;;;;20.48;45.58;98643.18;1698728;84;21000;-86
2022/05/24 11:33:15;;;;;;;10.53;4.00;;;;;;;20.48;46.73;98648.46;1703914;83;20996;-84
2022/05/24 11:35:52;;;;;;;8.18;4.05;;;;;;;20.31;48.15;98644.39;1703705;84;21672;-85
2022/05/24 11:38:30;;;;;;;7.92;3.80;;;;;;;20.14;48.73;98646.45;1688773;84;21023;-84
2022/05/24 11:41:12;;;;;;;8.78;3.95;;;;;;;19.89;49.74;98648.66;1712264;83;20990;-84
2022/05/24 11:43:50;;;;;;;11.12;4.25;;;;;;;19.72;49.44;98646.39;1704416;83;21107;-84
2022/05/24 11:46:41;;;;;;;12.93;4.30;;;;;;;19.59;49.79;98645.87;1709107;84;21503;-85
2022/05/24 11:49:23;;;;;;;9.55;3.80;;;;;;;19.51;50.04;98638.13;1705598;84;21068;-84
2022/05/24 11:51:57;;;;;;;8.08;4.20;;;;;;;19.38;50.40;98637.66;1711471;82;20991;-84
2022/05/24 11:54:29;;;;;;;9.50;3.92;;;;;;;19.28;52.16;98639.25;1718491;83;21034;-84
2022/05/24 11:57:10;;;;;;;9.40;4.07;;;;;;;19.33;51.17;98641.08;1745502;82;20956;-84
2022/05/24 11:59:48;;;;;;;12.55;3.72;;;;;;;19.25;51.88;98647.34;1747243;81;21055;-85
2022/05/24 12:02:33;;;;;;;7.65;4.15;;;;;;;19.33;51.00;98646.83;1748914;82;21043;-85
2022/05/24 12:08:08;;;;;;;9.38;3.77;;;;;;;19.34;51.00;98655.95;1736492;82;20986;-85
2022/05/24 12:10:51;;;;;;;10.70;3.95;;;;;;;19.42;50.84;98654.12;1746245;82;21080;-84
2022/05/24 12:13:46;;;;;;;8.43;4.30;;;;;;;19.44;51.22;98641.67;1741047;81;20995;-85
2022/05/24 12:16:39;;;;;;;6.80;3.62;;;;;;;19.40;52.62;98636.25;1727907;81;21524;-86
2022/05/24 12:19:10;;;;;;;9.18;4.00;;;;;;;19.43;52.80;98641.30;1732438;82;21068;-85
2022/05/24 12:21:58;;;;;;;9.28;3.98;;;;;;;19.46;52.29;98635.83;1739037;82;20990;-86
2022/05/24 12:24:33;;;;;;;8.33;4.00;;;;;;;19.53;52.06;98637.07;1751435;80;21029;-84
2022/05/24 12:27:45;;;;;;;8.63;3.75;;;;;;;19.40;53.05;98634.45;1750718;80;21035;-81
2022/05/24 12:30:35;;;;;;;5.80;3.22;;;;;;;19.41;52.08;98626.89;1740311;82;20988;-80
2022/05/24 12:33:35;;;;;;;6.90;4.03;;;;;;;19.43;52.37;98621.52;1733728;82;21495;-83
2022/05/24 12:36:18;;;;;;;6.33;2.98;;;;;;;19.34;53.02;98631.37;1742325;81;21548;-80
2022/05/24 12:38:50;;;;;;;6.42;3.20;;;;;;;19.33;53.16;98631.85;1746140;80;21016;-81
2022/05/24 12:41:41;;;;;;;8.40;3.20;;;;;;;19.22;54.35;98631.28;1739945;82;20980;-80
2022/05/24 12:44:22;;;;;;;6.17;2.98;;;;;;;19.26;54.27;98626.66;1745202;82;21044;-80
2022/05/24 12:47:01;;;;;;;9.93;3.02;;;;;;;19.28;53.89;98626.91;1743453;82;21039;-81